Chillicothe, Missouri
Current Conditions -  °F | °C
As of 9:35 AM on Friday 19 Dec 2014 (Local Time) from KGPH Reporting Station
Haze Haze  
Wind Chill: 32°   Ceiling: 700
Heat Index: 32°   Visibility: 5mi
Dew Point: 32°   Wind: 0mph
Humidity: 100%   Direction: NA
Pressure: 30.29"   Gusts: NA
Location:  39.79°N, 93.55°W
Report Text: KGPH 191535Z AUTO 00000KT 5SM BR OVC007 00/00 A3029 RMK AO2
Loading
Personal Weather Stations






























Interactive Weather Map New forecast layout! Learn more

10-Day Weather Forecast

Advertisements
Track Severe Weather on mobile